Time;durP1;ratioP1;P1;durP2;ratioP2;P2;SDS_P1;SDS_P2;PMS_P1;PMS_P2;Temp;Humidity;BMP_temperature;BMP_pressure;BME280_temperature;BME280_humidity;BME280_pressure;Samples;Min_cycle;Max_cycle;Signal;HPM_P1;HPM_P2
2022/08/09 00:02:06;;;;;;;2.65;2.45;;;23.30;99.90;;;;;;5027275;28;20204;-75
2022/08/09 00:04:33;;;;;;;2.55;2.45;;;23.30;99.90;;;;;;5026911;28;21088;-76
2022/08/09 00:07:01;;;;;;;2.40;2.30;;;23.30;99.90;;;;;;5028291;28;20222;-76
2022/08/09 00:09:28;;;;;;;2.47;2.38;;;23.20;99.90;;;;;;5028076;28;20204;-75
2022/08/09 00:11:55;;;;;;;2.30;2.20;;;23.20;99.90;;;;;;5028498;28;20210;-76
2022/08/09 00:14:23;;;;;;;3.50;2.67;;;23.20;99.90;;;;;;5026143;28;20219;-76
2022/08/09 00:16:50;;;;;;;2.72;2.53;;;23.10;99.90;;;;;;5027806;28;20733;-76
2022/08/09 00:19:18;;;;;;;2.50;2.40;;;23.10;99.90;;;;;;5023260;28;20219;-74
2022/08/09 00:21:45;;;;;;;2.53;2.30;;;23.10;99.90;;;;;;5026412;28;20200;-76
2022/08/09 00:24:12;;;;;;;2.60;2.40;;;23.10;99.90;;;;;;5026079;28;20227;-76
2022/08/09 00:26:40;;;;;;;2.38;2.28;;;23.00;99.90;;;;;;5024066;28;20215;-75
2022/08/09 00:29:07;;;;;;;2.83;2.63;;;23.00;99.90;;;;;;5024869;28;20216;-76
2022/08/09 00:31:34;;;;;;;2.22;2.13;;;23.00;99.90;;;;;;5023113;28;20204;-75
2022/08/09 00:34:01;;;;;;;2.45;2.35;;;22.90;99.90;;;;;;5023909;28;20235;-75
2022/08/09 00:36:30;;;;;;;2.58;2.47;;;22.80;99.90;;;;;;5030363;28;20304;-74
2022/08/09 00:38:57;;;;;;;2.85;2.65;;;22.80;99.90;;;;;;5026775;28;20301;-75
2022/08/09 00:41:24;;;;;;;2.92;2.40;;;22.70;99.90;;;;;;5029027;28;20285;-75
2022/08/09 00:43:51;;;;;;;2.42;2.33;;;22.70;99.90;;;;;;5027412;28;20223;-76
2022/08/09 00:46:19;;;;;;;2.97;2.78;;;22.60;99.90;;;;;;5027625;28;20199;-76
2022/08/09 00:48:47;;;;;;;2.67;2.47;;;22.50;99.90;;;;;;5026502;28;20215;-75
2022/08/09 00:51:16;;;;;;;2.50;2.35;;;22.50;99.90;;;;;;5029275;28;20207;-77
2022/08/09 00:53:45;;;;;;;2.50;2.30;;;22.40;99.90;;;;;;5025846;28;20223;-76
2022/08/09 00:56:12;;;;;;;2.83;2.63;;;22.40;99.90;;;;;;5031807;28;20346;-75
2022/08/09 00:58:39;;;;;;;2.50;2.40;;;22.30;99.90;;;;;;5028188;28;20709;-76
2022/08/09 01:01:12;;;;;;;3.13;2.92;;;22.30;99.90;;;;;;5031762;28;20626;-75
2022/08/09 01:03:48;;;;;;;2.42;2.30;;;22.20;99.90;;;;;;5031325;28;20219;-76
2022/08/09 01:06:25;;;;;;;2.20;2.10;;;22.20;99.90;;;;;;5025412;28;20202;-76
2022/08/09 01:09:03;;;;;;;2.47;2.38;;;22.20;99.90;;;;;;5027441;28;20214;-75
2022/08/09 01:11:42;;;;;;;2.13;2.03;;;22.20;99.90;;;;;;5026983;28;20281;-76
2022/08/09 01:14:13;;;;;;;2.70;2.50;;;22.30;99.90;;;;;;5024368;28;20231;-76
2022/08/09 01:16:55;;;;;;;2.30;2.20;;;22.20;99.90;;;;;;5026331;28;20265;-76
2022/08/09 01:19:36;;;;;;;2.50;2.38;;;22.20;99.90;;;;;;5027160;28;20716;-76
2022/08/09 01:22:14;;;;;;;2.33;2.15;;;22.20;99.90;;;;;;5029613;28;20200;-76
2022/08/09 01:24:54;;;;;;;2.30;2.20;;;22.20;99.90;;;;;;5033955;28;20199;-76
2022/08/09 01:27:24;;;;;;;2.47;2.28;;;22.10;99.90;;;;;;5027865;28;20223;-76
2022/08/09 01:29:56;;;;;;;2.55;2.35;;;22.10;99.90;;;;;;5034530;28;20867;-76
2022/08/09 01:32:31;;;;;;;2.50;2.35;;;22.00;99.90;;;;;;5031084;28;20270;-76
2022/08/09 01:35:01;;;;;;;2.08;1.98;;;22.00;99.90;;;;;;5029571;28;20195;-76
2022/08/09 01:37:30;;;;;;;2.38;2.28;;;21.90;99.90;;;;;;5030361;28;20226;-76
2022/08/09 01:40:00;;;;;;;2.08;1.98;;;21.90;99.90;;;;;;5031498;28;20223;-75
2022/08/09 01:42:30;;;;;;;2.20;2.10;;;21.90;99.90;;;;;;5029866;28;20258;-76
2022/08/09 01:44:57;;;;;;;2.30;2.20;;;21.90;99.90;;;;;;5031441;28;20713;-75
2022/08/09 01:47:26;;;;;;;2.40;2.30;;;21.90;99.90;;;;;;5030837;28;20869;-74
2022/08/09 01:49:55;;;;;;;2.20;2.10;;;21.80;99.90;;;;;;5028743;28;20204;-76
2022/08/09 01:52:23;;;;;;;2.08;1.98;;;21.90;99.90;;;;;;5025519;28;20232;-75
2022/08/09 01:54:55;;;;;;;2.20;2.10;;;21.80;99.90;;;;;;5031306;28;20207;-75
2022/08/09 01:57:28;;;;;;;2.03;1.92;;;21.80;99.90;;;;;;5028334;28;20242;-75
2022/08/09 02:00:02;;;;;;;2.20;2.10;;;21.80;99.90;;;;;;5030296;28;20231;-75
2022/08/09 02:05:01;;;;;;;2.20;2.10;;;21.70;99.90;;;;;;5017462;28;20249;-77
2022/08/09 02:07:29;;;;;;;2.30;2.20;;;21.70;99.90;;;;;;5023450;28;20219;-77
2022/08/09 02:10:00;;;;;;;2.20;2.10;;;21.70;99.90;;;;;;5026008;28;20258;-77
2022/08/09 02:12:28;;;;;;;2.00;1.90;;;21.70;99.90;;;;;;5025256;28;20277;-77
2022/08/09 02:14:59;;;;;;;2.20;2.10;;;21.70;99.90;;;;;;5027786;28;20192;-76
2022/08/09 02:17:30;;;;;;;2.10;2.00;;;21.70;99.90;;;;;;5028571;28;20219;-77
2022/08/09 02:19:57;;;;;;;2.10;2.00;;;21.70;99.90;;;;;;5026271;28;20219;-77
2022/08/09 02:22:34;;;;;;;2.00;1.90;;;21.60;99.90;;;;;;5026605;28;20216;-77
2022/08/09 02:25:03;;;;;;;1.90;1.80;;;21.60;99.90;;;;;;5025676;28;20550;-77
2022/08/09 02:27:32;;;;;;;2.17;2.08;;;21.60;99.90;;;;;;5027741;28;20215;-77
2022/08/09 02:30:02;;;;;;;2.00;1.90;;;21.60;99.90;;;;;;5024895;28;20196;-77
2022/08/09 02:32:32;;;;;;;2.00;1.90;;;21.60;99.90;;;;;;5027961;28;20228;-77
2022/08/09 02:35:04;;;;;;;2.00;1.90;;;21.60;99.90;;;;;;5028266;28;20579;-77
2022/08/09 02:37:32;;;;;;;1.88;1.77;;;21.60;99.90;;;;;;5029661;28;20216;-76
2022/08/09 02:40:04;;;;;;;2.22;2.13;;;21.60;99.90;;;;;;5029026;28;20426;-77
2022/08/09 02:42:34;;;;;;;1.90;1.80;;;21.50;99.90;;;;;;5027535;28;20219;-77
2022/08/09 02:45:07;;;;;;;1.80;1.70;;;21.50;99.90;;;;;;5026870;28;20206;-77
2022/08/09 02:47:36;;;;;;;2.00;1.90;;;21.40;99.90;;;;;;5026386;28;20276;-77
2022/08/09 02:50:06;;;;;;;1.90;1.80;;;21.40;99.90;;;;;;5028245;28;20199;-77
2022/08/09 02:52:39;;;;;;;1.90;1.80;;;21.30;99.90;;;;;;5027282;28;20224;-77
2022/08/09 02:55:09;;;;;;;1.90;1.80;;;21.30;99.90;;;;;;5027823;28;20200;-77
2022/08/09 02:57:38;;;;;;;2.00;1.90;;;21.20;99.90;;;;;;5026171;28;20227;-76
2022/08/09 03:00:09;;;;;;;1.80;1.70;;;21.20;99.90;;;;;;5026272;28;20238;-77
2022/08/09 03:02:39;;;;;;;1.70;1.60;;;21.20;99.90;;;;;;5028659;28;20713;-76
2022/08/09 03:05:10;;;;;;;1.92;1.83;;;21.10;99.90;;;;;;5027352;28;20196;-76
2022/08/09 03:07:38;;;;;;;1.90;1.80;;;21.10;99.90;;;;;;5026970;28;20310;-76
2022/08/09 03:10:07;;;;;;;1.83;1.73;;;21.00;99.90;;;;;;5025617;28;20219;-76
2022/08/09 03:12:37;;;;;;;1.85;1.75;;;21.00;99.90;;;;;;5028136;28;20311;-77
2022/08/09 03:15:09;;;;;;;2.00;1.85;;;21.00;99.90;;;;;;5028485;28;20192;-77
2022/08/09 03:17:37;;;;;;;2.00;1.90;;;21.00;99.90;;;;;;5026619;28;20235;-76
2022/08/09 03:20:07;;;;;;;1.90;1.80;;;20.90;99.90;;;;;;5025217;28;20226;-76
2022/08/09 03:22:38;;;;;;;2.33;1.90;;;20.70;99.90;;;;;;5026928;28;20768;-77
2022/08/09 03:25:07;;;;;;;2.05;1.95;;;20.70;99.90;;;;;;5026038;28;20270;-76
2022/08/09 03:27:35;;;;;;;2.03;1.83;;;20.60;99.90;;;;;;5026216;28;20988;-76
2022/08/09 03:30:02;;;;;;;1.80;1.70;;;20.50;99.90;;;;;;5028071;28;20203;-76
2022/08/09 03:32:33;;;;;;;2.10;1.90;;;20.40;99.90;;;;;;5025783;28;20224;-76
2022/08/09 03:35:00;;;;;;;2.15;1.75;;;20.40;99.90;;;;;;5030736;28;20682;-76
2022/08/09 03:37:28;;;;;;;2.05;1.50;;;20.40;99.90;;;;;;5028749;28;20234;-76
2022/08/09 03:39:55;;;;;;;2.03;1.92;;;20.40;99.90;;;;;;5024679;28;20223;-77
2022/08/09 03:42:22;;;;;;;2.08;1.98;;;20.50;99.90;;;;;;5026112;28;20219;-76
2022/08/09 03:44:49;;;;;;;2.00;1.90;;;20.50;99.90;;;;;;5027830;28;20215;-76
2022/08/09 03:47:16;;;;;;;2.00;1.90;;;20.50;99.90;;;;;;5027109;28;20223;-76
2022/08/09 03:49:46;;;;;;;1.90;1.80;;;20.50;99.90;;;;;;5025647;28;20614;-78
2022/08/09 03:52:14;;;;;;;1.60;1.50;;;20.50;99.90;;;;;;5026766;28;20702;-77
2022/08/09 03:54:42;;;;;;;1.83;1.73;;;20.50;99.90;;;;;;5027909;28;20223;-76
2022/08/09 03:57:11;;;;;;;1.77;1.67;;;20.50;99.90;;;;;;5020817;28;20216;-76
2022/08/09 03:59:39;;;;;;;1.95;1.70;;;20.40;99.90;;;;;;5023827;28;20228;-77
2022/08/09 04:02:06;;;;;;;1.70;1.60;;;20.40;99.90;;;;;;5025498;28;20199;-77
2022/08/09 04:04:34;;;;;;;1.80;1.70;;;20.50;99.90;;;;;;5025530;28;20227;-77
2022/08/09 04:07:04;;;;;;;1.65;1.55;;;20.50;99.90;;;;;;5024881;28;20208;-77
2022/08/09 04:09:31;;;;;;;1.70;1.60;;;20.50;99.90;;;;;;5026736;28;20238;-77
2022/08/09 04:12:20;;;;;;;1.77;1.67;;;20.40;99.90;;;;;;5025710;28;20195;-77
2022/08/09 04:14:47;;;;;;;1.48;1.45;;;20.40;99.90;;;;;;5026003;28;20215;-77
2022/08/09 04:17:14;;;;;;;1.70;1.60;;;20.40;99.90;;;;;;5021308;28;20224;-77
2022/08/09 04:19:41;;;;;;;1.70;1.60;;;20.50;99.90;;;;;;5023572;28;20310;-77
2022/08/09 04:22:10;;;;;;;1.75;1.65;;;20.40;99.90;;;;;;5026611;28;20235;-77
2022/08/09 04:24:37;;;;;;;1.60;1.50;;;20.40;99.90;;;;;;5023507;28;20224;-76
2022/08/09 04:27:04;;;;;;;2.55;1.70;;;20.40;99.90;;;;;;5025866;28;20203;-77
2022/08/09 04:29:31;;;;;;;1.50;1.40;;;20.40;99.90;;;;;;5024059;28;20613;-77
2022/08/09 04:31:58;;;;;;;1.73;1.63;;;20.30;99.90;;;;;;5027304;28;20233;-76
2022/08/09 04:34:25;;;;;;;1.90;1.80;;;20.30;99.90;;;;;;5027009;28;20371;-76
2022/08/09 04:36:53;;;;;;;1.50;1.40;;;20.30;99.90;;;;;;5027148;28;20192;-77
2022/08/09 04:39:21;;;;;;;1.73;1.63;;;20.30;99.90;;;;;;5025196;28;20226;-76
2022/08/09 04:41:48;;;;;;;1.75;1.65;;;20.30;99.90;;;;;;5026772;28;20199;-77
2022/08/09 04:44:15;;;;;;;1.98;1.70;;;20.30;99.90;;;;;;5028783;28;20270;-76
2022/08/09 04:46:42;;;;;;;1.70;1.60;;;20.30;99.90;;;;;;5028450;28;20594;-77
2022/08/09 04:49:09;;;;;;;3.30;1.88;;;20.40;99.90;;;;;;5023252;28;20211;-76
2022/08/09 04:51:36;;;;;;;1.75;1.65;;;20.50;99.90;;;;;;5026682;28;20195;-77
2022/08/09 04:54:04;;;;;;;1.70;1.60;;;20.60;99.90;;;;;;5023042;28;20226;-76
2022/08/09 04:56:32;;;;;;;1.70;1.60;;;20.80;99.90;;;;;;5021990;28;20200;-76
2022/08/09 04:58:59;;;;;;;1.50;1.40;;;21.00;99.90;;;;;;5019522;28;20216;-76
2022/08/09 05:01:26;;;;;;;1.45;1.40;;;21.20;99.90;;;;;;5022428;28;20204;-77
2022/08/09 05:03:53;;;;;;;2.00;1.90;;;21.30;99.90;;;;;;5023605;28;20223;-76
2022/08/09 05:06:20;;;;;;;1.73;1.63;;;21.50;99.90;;;;;;5026802;28;20206;-76
2022/08/09 05:08:47;;;;;;;1.88;1.77;;;21.60;99.90;;;;;;5026760;28;20219;-76
2022/08/09 05:11:15;;;;;;;2.20;1.60;;;21.70;99.90;;;;;;5023606;28;20200;-77
2022/08/09 05:13:43;;;;;;;2.10;1.90;;;21.90;99.90;;;;;;5022637;28;20219;-77
2022/08/09 05:16:10;;;;;;;1.88;1.77;;;21.90;99.90;;;;;;5028592;28;20666;-77
2022/08/09 05:18:37;;;;;;;1.80;1.70;;;22.00;99.90;;;;;;5024982;28;20231;-77
2022/08/09 05:21:05;;;;;;;3.70;1.90;;;22.10;99.90;;;;;;5028232;28;20219;-77
2022/08/09 05:23:32;;;;;;;1.83;1.73;;;22.10;99.90;;;;;;5019553;28;20645;-77
2022/08/09 05:25:59;;;;;;;1.90;1.80;;;22.20;99.90;;;;;;5027331;28;20191;-77
2022/08/09 05:28:26;;;;;;;1.80;1.70;;;22.30;99.90;;;;;;5025519;28;20220;-77
2022/08/09 05:30:55;;;;;;;1.90;1.80;;;22.50;99.90;;;;;;5025063;28;20589;-77
2022/08/09 05:33:22;;;;;;;1.73;1.63;;;22.70;99.90;;;;;;5027888;28;20235;-77
2022/08/09 05:35:49;;;;;;;1.55;1.45;;;22.90;99.90;;;;;;5026176;28;20740;-76
2022/08/09 05:38:16;;;;;;;1.70;1.60;;;23.20;99.90;;;;;;5023458;28;20220;-77
2022/08/09 05:40:43;;;;;;;1.80;1.70;;;23.50;99.90;;;;;;5022746;28;20246;-76
2022/08/09 05:43:10;;;;;;;2.00;1.90;;;23.70;99.90;;;;;;5026226;28;20637;-76
2022/08/09 05:45:37;;;;;;;1.90;1.80;;;23.80;99.90;;;;;;5029944;28;20230;-77
2022/08/09 05:48:07;;;;;;;1.80;1.70;;;23.90;99.90;;;;;;5025366;28;20234;-77
2022/08/09 05:50:34;;;;;;;2.00;1.90;;;23.80;99.90;;;;;;5027429;28;20700;-77
2022/08/09 05:53:01;;;;;;;1.95;1.85;;;23.90;99.90;;;;;;5025742;28;20722;-77
2022/08/09 05:55:28;;;;;;;1.77;1.67;;;23.90;99.90;;;;;;5026055;28;20199;-77
2022/08/09 05:57:55;;;;;;;1.70;1.60;;;23.90;99.90;;;;;;5015600;28;20224;-78
2022/08/09 06:00:22;;;;;;;1.70;1.60;;;24.10;99.90;;;;;;5005261;28;20216;-77
2022/08/09 06:02:49;;;;;;;2.00;1.90;;;24.30;99.90;;;;;;5004673;28;20236;-77
2022/08/09 06:05:18;;;;;;;2.20;2.00;;;24.40;99.90;;;;;;5012058;28;20207;-77
2022/08/09 06:07:45;;;;;;;2.20;2.10;;;24.20;99.90;;;;;;5011968;28;20216;-76
2022/08/09 06:10:14;;;;;;;3.72;1.90;;;24.10;99.90;;;;;;5017674;28;20654;-77
2022/08/09 06:12:42;;;;;;;2.03;1.92;;;24.00;99.90;;;;;;5023483;28;20310;-77
2022/08/09 06:15:09;;;;;;;2.00;1.80;;;23.90;99.90;;;;;;5029251;28;20227;-77
2022/08/09 06:17:37;;;;;;;2.80;2.03;;;23.80;99.90;;;;;;5023231;28;20732;-77
2022/08/09 06:20:05;;;;;;;2.50;2.40;;;23.90;99.90;;;;;;5030041;28;20698;-77
2022/08/09 06:22:33;;;;;;;2.05;1.95;;;24.00;99.90;;;;;;5025186;28;20223;-77
2022/08/09 06:25:00;;;;;;;2.22;2.08;;;24.10;99.90;;;;;;5026944;28;20197;-77
2022/08/09 06:27:27;;;;;;;2.45;2.25;;;24.20;99.90;;;;;;5023580;28;20238;-77
2022/08/09 06:29:54;;;;;;;3.00;1.92;;;24.20;99.90;;;;;;5028350;28;20304;-77
2022/08/09 06:32:21;;;;;;;2.55;2.33;;;24.20;99.90;;;;;;5027143;28;20231;-77
2022/08/09 06:34:49;;;;;;;2.78;2.40;;;24.20;99.90;;;;;;5027579;28;20230;-77
2022/08/09 06:37:16;;;;;;;2.42;2.22;;;24.10;99.90;;;;;;5024092;28;20639;-78
2022/08/09 06:39:45;;;;;;;2.45;2.17;;;24.10;99.90;;;;;;5027611;28;20257;-77
2022/08/09 06:42:12;;;;;;;2.70;2.50;;;24.10;99.90;;;;;;5025181;28;20223;-77
2022/08/09 06:44:39;;;;;;;4.38;2.40;;;24.00;99.90;;;;;;5028442;28;20220;-77
2022/08/09 06:47:06;;;;;;;2.53;2.33;;;24.00;99.90;;;;;;5028015;28;20234;-79
2022/08/09 06:49:34;;;;;;;3.15;2.20;;;24.00;99.90;;;;;;5027740;28;20218;-76
2022/08/09 06:52:01;;;;;;;3.20;2.38;;;24.00;99.90;;;;;;5023154;28;20553;-76
2022/08/09 06:54:28;;;;;;;2.00;1.90;;;24.10;99.90;;;;;;5017693;28;20215;-77
2022/08/09 06:56:56;;;;;;;2.50;2.30;;;24.10;99.90;;;;;;5020991;28;20581;-77
2022/08/09 06:59:23;;;;;;;2.88;2.35;;;24.30;99.90;;;;;;5020195;28;20826;-76
2022/08/09 07:01:50;;;;;;;2.40;2.30;;;24.50;99.90;;;;;;5020400;28;20721;-77
2022/08/09 07:04:17;;;;;;;2.45;2.08;;;24.50;99.90;;;;;;5022554;28;20234;-77
2022/08/09 07:06:45;;;;;;;2.78;2.40;;;24.40;99.90;;;;;;5020632;28;20211;-77
2022/08/09 07:09:12;;;;;;;3.22;2.20;;;24.30;99.90;;;;;;5004055;28;20274;-77
2022/08/09 07:11:40;;;;;;;4.32;2.78;;;24.20;99.90;;;;;;5003128;28;20204;-76
2022/08/09 07:14:08;;;;;;;2.00;1.90;;;24.50;99.90;;;;;;5001409;28;20224;-77
2022/08/09 07:16:35;;;;;;;2.50;2.30;;;24.90;99.90;;;;;;5004811;28;20403;-77
2022/08/09 07:19:02;;;;;;;2.70;2.50;;;25.20;99.90;;;;;;5001102;28;20801;-78
2022/08/09 07:21:30;;;;;;;2.88;2.60;;;25.40;99.90;;;;;;5002579;28;20227;-78
2022/08/09 07:23:57;;;;;;;2.10;2.00;;;25.60;99.90;;;;;;4997643;28;20224;-79
2022/08/09 07:26:24;;;;;;;2.70;2.50;;;25.70;99.90;;;;;;5007254;28;20208;-80
2022/08/09 07:28:51;;;;;;;2.00;1.90;;;25.70;99.90;;;;;;5006627;28;20282;-79
2022/08/09 07:31:19;;;;;;;2.33;2.13;;;25.60;99.90;;;;;;5004754;28;20287;-80
2022/08/09 07:33:48;;;;;;;2.58;2.38;;;25.50;99.90;;;;;;5004392;28;20224;-80
2022/08/09 07:36:15;;;;;;;3.17;2.50;;;25.60;99.90;;;;;;5006087;28;20204;-79
2022/08/09 07:38:42;;;;;;;2.90;2.25;;;25.60;99.90;;;;;;5007052;28;20216;-80
2022/08/09 07:41:09;;;;;;;2.45;2.30;;;25.60;99.90;;;;;;5000233;28;20220;-80
2022/08/09 07:43:37;;;;;;;2.78;2.58;;;25.60;99.90;;;;;;4998883;28;20229;-79
2022/08/09 07:46:04;;;;;;;3.03;2.60;;;25.50;99.90;;;;;;5003721;28;20646;-79
2022/08/09 07:48:33;;;;;;;2.30;2.10;;;25.50;99.90;;;;;;4999334;28;20572;-78
2022/08/09 07:51:01;;;;;;;2.17;2.08;;;25.80;99.90;;;;;;5002551;28;20199;-79
2022/08/09 07:53:28;;;;;;;2.97;2.17;;;26.10;99.90;;;;;;5015647;28;20219;-80
2022/08/09 07:55:55;;;;;;;3.65;2.53;;;26.20;99.90;;;;;;5022011;28;20208;-78
2022/08/09 07:58:22;;;;;;;2.30;2.20;;;26.20;99.90;;;;;;5020597;28;20889;-82
2022/08/09 08:00:50;;;;;;;2.50;2.30;;;26.10;99.90;;;;;;5023513;28;20227;-80
2022/08/09 08:05:54;;;;;;;2.17;2.08;;;26.40;99.90;;;;;;5002635;28;20212;-75
2022/08/09 08:08:23;;;;;;;2.35;2.15;;;26.40;99.90;;;;;;5001717;28;20224;-76
2022/08/09 08:10:50;;;;;;;4.65;2.40;;;26.50;99.90;;;;;;5007844;28;20259;-76
2022/08/09 08:13:17;;;;;;;2.55;2.17;;;26.70;99.90;;;;;;5011947;28;20247;-75
2022/08/09 08:15:44;;;;;;;3.15;2.38;;;27.00;99.90;;;;;;4992143;28;20203;-75
2022/08/09 08:18:11;;;;;;;2.60;2.40;;;27.00;99.90;;;;;;4986134;28;20263;-74
2022/08/09 08:20:38;;;;;;;2.00;1.90;;;27.20;99.90;;;;;;4987510;28;20224;-74
2022/08/09 08:23:07;;;;;;;2.55;2.38;;;27.20;99.90;;;;;;4989707;28;20225;-76
2022/08/09 08:25:35;;;;;;;2.22;2.10;;;27.40;99.90;;;;;;4984673;28;20217;-77
2022/08/09 08:28:02;;;;;;;2.42;2.22;;;27.30;99.90;;;;;;4987683;28;20208;-77
2022/08/09 08:30:29;;;;;;;3.50;2.78;;;27.10;99.90;;;;;;4989467;28;20575;-76
2022/08/09 08:32:56;;;;;;;2.70;2.25;;;27.00;99.90;;;;;;4985945;28;20372;-76
2022/08/09 08:35:23;;;;;;;4.50;2.60;;;27.00;99.90;;;;;;4986663;28;20221;-76
2022/08/09 08:37:51;;;;;;;2.53;2.33;;;27.00;99.90;;;;;;4992247;28;20224;-77
2022/08/09 08:40:20;;;;;;;2.38;2.28;;;26.90;99.90;;;;;;4990325;28;20286;-75
2022/08/09 08:42:47;;;;;;;2.53;2.33;;;26.90;99.90;;;;;;4986597;28;20216;-76
2022/08/09 08:45:16;;;;;;;2.50;2.30;;;27.10;99.90;;;;;;4987886;28;20592;-77
2022/08/09 08:47:45;;;;;;;2.60;2.40;;;27.00;99.90;;;;;;4990143;28;20220;-76
2022/08/09 08:50:15;;;;;;;2.30;2.15;;;27.20;99.90;;;;;;4992742;28;20466;-76
2022/08/09 08:52:43;;;;;;;6.85;2.40;;;27.40;99.90;;;;;;4987207;28;20239;-76
2022/08/09 08:55:10;;;;;;;3.00;2.25;;;27.60;99.90;;;;;;4987612;28;20217;-76
2022/08/09 08:57:39;;;;;;;2.70;2.50;;;27.60;99.90;;;;;;4989382;28;20233;-75
2022/08/09 09:00:09;;;;;;;2.50;2.30;;;27.60;99.90;;;;;;4986097;28;20518;-76
2022/08/09 09:02:37;;;;;;;2.20;2.10;;;27.60;99.90;;;;;;4984081;28;20335;-75
2022/08/09 09:05:05;;;;;;;2.95;2.20;;;27.70;99.90;;;;;;4987990;28;20231;-78
2022/08/09 09:07:33;;;;;;;2.28;2.10;;;27.90;99.90;;;;;;4988932;28;20591;-74
2022/08/09 09:10:06;;;;;;;2.35;2.15;;;27.80;99.90;;;;;;4988986;28;20197;-76
2022/08/09 09:12:35;;;;;;;2.10;2.00;;;28.10;99.90;;;;;;4987783;28;20223;-75
2022/08/09 09:15:05;;;;;;;2.33;2.20;;;28.30;99.90;;;;;;4988128;28;20221;-76
2022/08/09 09:17:34;;;;;;;2.60;2.20;;;28.30;99.90;;;;;;4988444;28;20722;-74
2022/08/09 09:20:01;;;;;;;2.40;2.20;;;28.20;99.90;;;;;;4988709;28;20252;-77
2022/08/09 09:22:29;;;;;;;2.08;1.95;;;28.10;99.90;;;;;;4985895;28;20220;-76
2022/08/09 09:24:57;;;;;;;2.58;2.38;;;28.30;99.90;;;;;;4987215;28;20623;-76
2022/08/09 09:27:26;;;;;;;2.55;2.35;;;28.30;99.90;;;;;;4986020;28;20730;-76
2022/08/09 09:29:55;;;;;;;2.60;2.40;;;28.50;99.90;;;;;;4983704;28;20201;-76
2022/08/09 09:32:25;;;;;;;2.55;2.35;;;28.40;99.90;;;;;;4984944;28;20298;-78
2022/08/09 09:35:06;;;;;;;2.17;2.08;;;28.30;99.90;;;;;;4990159;28;20213;-76
2022/08/09 09:37:33;;;;;;;2.10;2.00;;;28.40;99.90;;;;;;4986980;28;20588;-75
2022/08/09 09:40:01;;;;;;;2.47;2.10;;;28.70;99.90;;;;;;4990684;28;20197;-77
2022/08/09 09:42:29;;;;;;;2.85;2.20;;;28.80;99.90;;;;;;4986521;28;20225;-77
2022/08/09 09:44:58;;;;;;;2.00;1.90;;;29.20;99.90;;;;;;4991209;28;20473;-75
2022/08/09 09:47:28;;;;;;;2.40;2.20;;;29.40;99.90;;;;;;4992244;28;20252;-76
2022/08/09 09:49:58;;;;;;;3.58;2.35;;;29.50;99.90;;;;;;4994145;28;20200;-76
2022/08/09 09:52:26;;;;;;;2.75;2.55;;;29.20;99.90;;;;;;4988419;28;20225;-77
2022/08/09 09:55:01;;;;;;;2.47;2.20;;;29.20;99.90;;;;;;4990647;28;20466;-75
2022/08/09 09:57:29;;;;;;;2.90;2.00;;;29.20;99.90;;;;;;4989166;28;20225;-76
2022/08/09 09:59:56;;;;;;;2.65;2.03;;;29.30;99.90;;;;;;4990027;28;20200;-76
2022/08/09 10:02:25;;;;;;;2.50;2.30;;;29.40;99.90;;;;;;4988813;28;20240;-76
2022/08/09 10:05:06;;;;;;;2.15;2.00;;;29.20;99.90;;;;;;4986536;28;20224;-75
2022/08/09 10:07:33;;;;;;;2.22;2.00;;;29.10;99.90;;;;;;4988508;28;20221;-76
2022/08/09 10:10:01;;;;;;;1.90;1.77;;;29.20;99.90;;;;;;4988740;28;20198;-76
2022/08/09 10:12:31;;;;;;;2.20;2.10;;;29.20;99.90;;;;;;4988539;28;20320;-76
2022/08/09 10:15:10;;;;;;;2.22;1.88;;;29.30;99.90;;;;;;4991850;28;20209;-75
2022/08/09 10:17:39;;;;;;;2.22;2.13;;;29.20;99.90;;;;;;4992427;28;20280;-77
2022/08/09 10:20:24;;;;;;;2.00;1.90;;;29.40;99.90;;;;;;4991996;28;20203;-76
2022/08/09 10:22:54;;;;;;;3.00;2.00;;;29.60;99.90;;;;;;4990291;28;20221;-77
2022/08/09 10:25:23;;;;;;;2.22;2.10;;;30.00;99.90;;;;;;4997367;28;20224;-76
2022/08/09 10:27:50;;;;;;;2.00;1.90;;;30.10;99.90;;;;;;4991649;28;20229;-77
2022/08/09 10:30:18;;;;;;;2.03;1.92;;;30.10;99.90;;;;;;4993408;28;20406;-76
2022/08/09 10:32:47;;;;;;;2.20;2.10;;;29.90;99.90;;;;;;4989511;28;20216;-76
2022/08/09 10:35:16;;;;;;;2.15;1.95;;;30.00;99.90;;;;;;4990737;28;20205;-76
2022/08/09 10:37:44;;;;;;;1.80;1.70;;;30.10;99.90;;;;;;4988751;28;20902;-74
2022/08/09 10:40:12;;;;;;;1.80;1.70;;;30.10;99.90;;;;;;4981943;28;20214;-76
2022/08/09 10:42:39;;;;;;;1.70;1.60;;;30.30;99.90;;;;;;4987323;28;20221;-76
2022/08/09 10:45:10;;;;;;;1.73;1.63;;;30.40;99.90;;;;;;4989810;28;20628;-77
2022/08/09 10:47:49;;;;;;;1.70;1.60;;;30.60;99.90;;;;;;4988470;28;20235;-73
2022/08/09 10:50:24;;;;;;;2.33;2.17;;;30.70;99.90;;;;;;4987712;28;20229;-77
2022/08/09 10:53:08;;;;;;;1.92;1.83;;;30.50;99.90;;;;;;4991127;28;20240;-76
2022/08/09 10:55:35;;;;;;;1.90;1.80;;;30.60;99.90;;;;;;4988184;28;20823;-76
2022/08/09 10:58:03;;;;;;;1.63;1.50;;;30.60;99.90;;;;;;4986234;28;20255;-75
2022/08/09 11:00:41;;;;;;;1.83;1.70;;;30.60;99.90;;;;;;4985498;28;20205;-77
2022/08/09 11:03:23;;;;;;;1.73;1.63;;;30.70;99.90;;;;;;4991653;28;20220;-74
2022/08/09 11:06:19;;;;;;;1.42;1.33;;;30.60;99.90;;;;;;4986448;28;20221;-75
2022/08/09 11:08:48;;;;;;;2.00;1.55;;;30.80;99.90;;;;;;4993711;28;20299;-77
2022/08/09 11:11:15;;;;;;;2.10;1.48;;;31.00;99.90;;;;;;4987287;28;21429;-75
2022/08/09 11:13:42;;;;;;;1.48;1.38;;;31.20;99.90;;;;;;4985859;28;20228;-75
2022/08/09 11:16:32;;;;;;;1.38;1.27;;;31.20;99.90;;;;;;4992924;28;20213;-76
2022/08/09 11:18:59;;;;;;;1.77;1.65;;;31.30;99.90;;;;;;4993509;28;20589;-76
2022/08/09 11:22:07;;;;;;;1.60;1.50;;;31.30;99.90;;;;;;4987513;28;20217;-76
2022/08/09 11:25:06;;;;;;;2.50;1.77;;;31.40;99.90;;;;;;4974701;28;20220;-76
2022/08/09 11:27:37;;;;;;;1.75;1.65;;;31.70;99.90;;;;;;4982066;28;20257;-77
2022/08/09 11:30:05;;;;;;;1.50;1.40;;;31.70;99.90;;;;;;4988832;28;20200;-76
2022/08/09 11:32:44;;;;;;;1.40;1.30;;;31.50;99.90;;;;;;4992534;28;20437;-74
2022/08/09 11:35:15;;;;;;;2.55;1.35;;;31.50;99.90;;;;;;5011388;28;20223;-77
2022/08/09 11:37:43;;;;;;;1.63;1.52;;;31.60;99.90;;;;;;5002214;28;20711;-76
2022/08/09 11:40:14;;;;;;;1.50;1.40;;;31.70;99.90;;;;;;4991111;28;20205;-76
2022/08/09 11:42:46;;;;;;;1.70;1.60;;;31.80;99.90;;;;;;4988748;28;20733;-75
2022/08/09 11:45:27;;;;;;;1.73;1.50;;;31.90;99.90;;;;;;4991167;28;20282;-74
2022/08/09 11:47:57;;;;;;;1.65;1.48;;;31.90;99.90;;;;;;4988910;28;20220;-74
2022/08/09 11:50:25;;;;;;;1.95;1.27;;;31.80;99.90;;;;;;4989979;28;20244;-75
2022/08/09 11:53:19;;;;;;;1.30;1.20;;;31.90;99.90;;;;;;4991916;28;20239;-76
2022/08/09 11:55:48;;;;;;;1.45;1.35;;;32.10;98.40;;;;;;4991952;28;20275;-76
2022/08/09 11:58:41;;;;;;;1.30;1.20;;;32.20;97.90;;;;;;4988988;28;20256;-75
2022/08/09 12:01:09;;;;;;;1.35;1.23;;;32.20;95.10;;;;;;4988310;28;20562;-75
2022/08/09 12:03:36;;;;;;;1.05;1.05;;;32.00;96.20;;;;;;4988707;28;20217;-76
2022/08/09 12:06:17;;;;;;;1.10;1.10;;;32.00;96.40;;;;;;4987170;28;20203;-77
2022/08/09 12:08:50;;;;;;;1.42;1.10;;;31.90;95.60;;;;;;4989932;28;20255;-76
2022/08/09 12:11:20;;;;;;;0.90;0.90;;;32.00;94.70;;;;;;4988921;28;20185;-77
2022/08/09 12:13:50;;;;;;;1.02;1.00;;;32.20;95.50;;;;;;4990407;28;20730;-76
2022/08/09 12:16:20;;;;;;;1.20;1.10;;;32.30;95.00;;;;;;4988180;28;20215;-78
2022/08/09 12:18:49;;;;;;;1.20;1.00;;;32.30;93.10;;;;;;4989628;28;20220;-77
2022/08/09 12:21:30;;;;;;;0.95;0.90;;;32.40;92.70;;;;;;4994166;28;20198;-76
2022/08/09 12:24:01;;;;;;;1.10;1.00;;;32.60;91.60;;;;;;4991778;28;20279;-77
2022/08/09 12:26:40;;;;;;;1.05;1.05;;;32.80;91.70;;;;;;4991109;28;20197;-76
2022/08/09 12:29:08;;;;;;;0.93;0.90;;;32.90;90.80;;;;;;4990309;28;20224;-75
2022/08/09 12:31:35;;;;;;;0.88;0.88;;;32.90;90.80;;;;;;4987653;28;20430;-75
2022/08/09 12:34:02;;;;;;;0.80;0.80;;;32.90;90.20;;;;;;4990008;28;20224;-76
2022/08/09 12:36:29;;;;;;;1.05;0.90;;;32.90;88.00;;;;;;4983981;28;20202;-76
2022/08/09 12:38:57;;;;;;;0.90;0.90;;;32.90;87.30;;;;;;4983343;28;20220;-76
2022/08/09 12:41:25;;;;;;;0.90;0.90;;;32.70;88.70;;;;;;4988218;28;20212;-74
2022/08/09 12:43:55;;;;;;;0.90;0.90;;;32.60;87.10;;;;;;4985740;28;20237;-77
2022/08/09 12:46:24;;;;;;;1.02;1.00;;;32.60;85.70;;;;;;4984629;28;20710;-77
2022/08/09 12:48:52;;;;;;;0.82;0.82;;;32.50;85.50;;;;;;4989368;28;20237;-77
2022/08/09 12:51:20;;;;;;;0.90;0.90;;;32.50;85.80;;;;;;4982912;28;20240;-74
2022/08/09 12:53:58;;;;;;;0.80;0.80;;;32.60;84.30;;;;;;4985852;28;20228;-76
2022/08/09 12:56:26;;;;;;;1.70;1.00;;;32.70;83.80;;;;;;4988154;28;20246;-76
2022/08/09 12:59:09;;;;;;;0.82;0.70;;;32.80;82.50;;;;;;4985732;28;20731;-76
2022/08/09 13:01:38;;;;;;;0.88;0.88;;;33.00;83.10;;;;;;4988647;28;20208;-77
2022/08/09 13:04:07;;;;;;;0.93;0.90;;;33.10;81.60;;;;;;4984884;28;20220;-76
2022/08/09 13:06:37;;;;;;;1.42;0.70;;;33.10;79.60;;;;;;4984048;28;20706;-75